Swanburg, Minnesota
Current Conditions -  °F | °C
As of 6:13 PM on Wednesday 26 Nov 2014 (Local Time) from KPWC Reporting Station
Clear Clear  
Wind Chill: -7°   Ceiling: Unl
Heat Index:   Visibility: 10mi
Dew Point: -6°   Wind: 9mph
Humidity: 56%   Direction: 340°NNW
Pressure: 30.38"   Gusts: 16mph
Location:  46.6535°N, 94.5389°W
Report Text: KPWC 270013Z AUTO 34008G14KT 10SM CLR M14/M21 A3038 RMK AO2
Loading
Personal Weather Stations






























Interactive Weather Map New forecast layout! Learn more

10-Day Weather Forecast

Advertisements
Track Severe Weather on mobile